Time;durP1;ratioP1;P1;durP2;ratioP2;P2;SDS_P1;SDS_P2;PMS_P1;PMS_P2;Temp;Humidity;BMP_temperature;BMP_pressure;BME280_temperature;BME280_humidity;BME280_pressure;Samples;Min_cycle;Max_cycle;Signal;HPM_P1;HPM_P2
2022/09/24 00:26:49;;;;;;;5.88;5.35;;;8.10;99.90;;;;;;6156960;23;20044;31
2022/09/24 06:25:57;;;;;;;7.38;6.63;;;9.50;99.90;;;;;;6196357;23;20040;-83
2022/09/24 06:28:50;;;;;;;6.63;6.03;;;9.60;99.90;;;;;;6231047;23;20012;-83
2022/09/24 06:31:37;;;;;;;7.07;6.45;;;9.70;99.90;;;;;;6230344;23;20024;-83
2022/09/24 06:34:04;;;;;;;6.88;6.07;;;9.80;99.90;;;;;;6245810;23;20032;-83
2022/09/24 06:36:31;;;;;;;9.27;5.45;;;9.80;99.90;;;;;;6254326;23;20012;-83
2022/09/24 06:38:59;;;;;;;6.53;6.03;;;9.90;99.90;;;;;;6255048;23;20031;-80
2022/09/24 06:41:26;;;;;;;7.40;6.57;;;10.00;99.90;;;;;;6247404;22;20024;-80
2022/09/24 06:43:54;;;;;;;6.35;5.75;;;10.10;99.90;;;;;;6256097;23;20015;-80
2022/09/24 06:46:24;;;;;;;12.77;6.78;;;10.00;99.90;;;;;;6218747;23;20032;-80
2022/09/24 06:48:55;;;;;;;7.22;6.63;;;10.10;99.90;;;;;;6218464;22;20028;-82
2022/09/24 06:51:28;;;;;;;7.80;7.18;;;10.20;99.90;;;;;;6253924;23;20019;-82
2022/09/24 06:53:56;;;;;;;6.20;5.63;;;10.30;99.90;;;;;;6247037;23;20028;-82
2022/09/24 06:56:23;;;;;;;8.32;7.57;;;10.40;99.90;;;;;;6216310;23;20043;-81
2022/09/24 06:58:51;;;;;;;5.97;5.38;;;10.50;99.90;;;;;;6246183;23;20008;-81
2022/09/24 07:01:18;;;;;;;7.68;6.40;;;10.60;99.90;;;;;;6274211;22;20021;-81
2022/09/24 07:03:45;;;;;;;7.07;5.60;;;10.70;99.90;;;;;;6280197;22;20328;-81
2022/09/24 07:06:13;;;;;;;7.60;6.80;;;10.80;99.90;;;;;;6244716;22;20027;-81
2022/09/24 07:08:40;;;;;;;7.18;6.47;;;10.90;99.90;;;;;;6253021;23;20043;-81
2022/09/24 07:11:07;;;;;;;7.13;6.40;;;11.00;99.90;;;;;;6253734;23;20328;-81
2022/09/24 07:13:35;;;;;;;7.30;6.57;;;11.00;99.90;;;;;;6249146;23;20012;-81
2022/09/24 07:16:02;;;;;;;6.85;6.15;;;11.10;99.90;;;;;;6254856;23;20431;-81
2022/09/24 07:18:29;;;;;;;10.55;9.55;;;11.00;99.90;;;;;;6244541;23;20627;-81
2022/09/24 07:20:57;;;;;;;7.10;5.55;;;11.20;99.90;;;;;;6251137;23;20012;-81
2022/09/24 07:24:08;;;;;;;12.35;7.72;;;11.20;99.90;;;;;;6255935;23;20012;-81
2022/09/24 07:26:35;;;;;;;11.63;6.97;;;11.30;99.90;;;;;;6244743;23;20032;-82
2022/09/24 07:29:03;;;;;;;9.30;6.88;;;11.30;99.90;;;;;;6224834;23;20024;-81
2022/09/24 07:31:30;;;;;;;9.65;7.93;;;11.40;99.90;;;;;;6256101;23;20008;-82
2022/09/24 07:33:58;;;;;;;8.38;6.20;;;11.50;99.90;;;;;;6247480;23;20046;-82
2022/09/24 07:36:25;;;;;;;8.13;6.82;;;11.50;99.90;;;;;;6253658;23;20016;-83
2022/09/24 07:38:53;;;;;;;8.75;6.90;;;11.50;99.90;;;;;;6254775;23;20339;-82
2022/09/24 07:41:20;;;;;;;7.55;6.75;;;11.70;99.90;;;;;;6249386;23;20031;-82
2022/09/24 07:43:48;;;;;;;11.98;6.60;;;11.60;99.90;;;;;;6256160;23;20008;-82
2022/09/24 07:46:15;;;;;;;6.25;5.75;;;11.70;99.90;;;;;;6244869;23;20024;-82
2022/09/24 07:48:42;;;;;;;6.45;5.65;;;11.60;99.90;;;;;;6252880;23;20028;-83
2022/09/24 07:51:10;;;;;;;10.27;6.60;;;11.80;99.90;;;;;;6255587;23;20012;-82
2022/09/24 07:53:38;;;;;;;23.02;5.55;;;11.80;99.90;;;;;;6248934;23;20032;-82
2022/09/24 07:56:05;;;;;;;5.15;4.65;;;11.80;99.90;;;;;;6254578;23;20019;-83
2022/09/24 07:58:33;;;;;;;6.45;5.28;;;11.90;99.90;;;;;;6256309;23;20012;-82
2022/09/24 08:01:00;;;;;;;6.75;5.18;;;11.90;99.90;;;;;;6217926;23;20024;-83
2022/09/24 08:03:28;;;;;;;5.82;5.22;;;11.90;99.90;;;;;;6280316;22;20019;-82
2022/09/24 08:08:59;;;;;;;7.07;5.95;;;12.10;99.90;;;;;;6203742;23;20031;-89
2022/09/24 08:11:28;;;;;;;6.28;5.68;;;12.20;99.90;;;;;;6193827;23;20317;-91
2022/09/24 08:14:08;;;;;;;5.82;5.32;;;12.20;99.90;;;;;;6178851;23;20699;-89
2022/09/24 08:16:44;;;;;;;12.45;6.55;;;12.30;99.90;;;;;;6239532;23;20023;-88
2022/09/24 08:19:23;;;;;;;6.88;5.63;;;12.30;99.90;;;;;;6244415;23;20016;-88
2022/09/24 08:22:25;;;;;;;7.30;5.10;;;12.30;99.90;;;;;;6270198;22;20024;-88
2022/09/24 08:24:56;;;;;;;5.72;5.22;;;12.40;99.90;;;;;;6224996;23;20031;-90
2022/09/24 08:27:27;;;;;;;7.85;5.55;;;12.50;99.90;;;;;;6215440;23;20021;-91
2022/09/24 08:30:10;;;;;;;7.28;6.57;;;12.60;99.90;;;;;;6186890;23;20036;-90
2022/09/24 08:32:44;;;;;;;7.28;6.50;;;12.60;99.90;;;;;;6194509;23;20025;-90
2022/09/24 08:35:14;;;;;;;6.15;5.35;;;12.70;99.90;;;;;;6221300;23;20020;-91
2022/09/24 08:37:53;;;;;;;6.82;6.22;;;12.70;99.90;;;;;;6185176;23;20021;-91
2022/09/24 08:40:24;;;;;;;5.95;5.45;;;12.80;99.90;;;;;;6219382;23;20021;-92
2022/09/24 08:43:13;;;;;;;;;;;12.90;99.90;;;;;;6198385;23;20306;-92
2022/09/24 08:49:42;;;;;;;5.80;5.30;;;13.10;99.90;;;;;;6185897;23;20021;-91
2022/09/24 08:52:28;;;;;;;6.43;5.75;;;13.20;99.90;;;;;;6160266;23;20017;-90
2022/09/24 08:55:01;;;;;;;6.25;4.57;;;13.30;99.90;;;;;;6197523;23;20009;-89
2022/09/24 08:57:35;;;;;;;5.65;4.90;;;13.40;99.90;;;;;;6184512;23;20021;-91
2022/09/24 09:00:05;;;;;;;6.07;4.88;;;13.50;99.90;;;;;;6186060;23;20024;-92
2022/09/24 09:03:00;;;;;;;7.22;4.90;;;13.60;99.90;;;;;;6185261;23;20315;-91
2022/09/24 09:05:43;;;;;;;4.35;4.00;;;13.60;99.90;;;;;;6184762;23;20032;-88
2022/09/24 09:08:33;;;;;;;4.93;3.47;;;13.70;99.90;;;;;;6184109;23;20017;-85
2022/09/24 09:11:23;;;;;;;6.82;3.55;;;13.80;99.90;;;;;;6184823;23;20021;-87
2022/09/24 09:13:57;;;;;;;3.83;3.53;;;13.90;99.90;;;;;;6188776;23;20029;-88
2022/09/24 09:16:49;;;;;;;3.38;3.15;;;13.90;99.90;;;;;;6194538;23;20029;-89
2022/09/24 09:19:51;;;;;;;4.00;3.00;;;13.90;99.90;;;;;;6210400;23;20017;-88
2022/09/24 09:23:07;;;;;;;4.57;3.97;;;13.80;99.90;;;;;;6154855;23;20471;-90
2022/09/24 09:25:46;;;;;;;4.88;3.30;;;13.80;99.90;;;;;;6204000;23;20025;-87
2022/09/24 09:28:16;;;;;;;3.25;2.85;;;13.70;99.90;;;;;;6224938;23;20027;-90
2022/09/24 09:30:55;;;;;;;4.13;3.65;;;13.80;99.90;;;;;;6228351;23;20008;-88
2022/09/24 09:33:51;;;;;;;3.08;2.83;;;13.70;99.90;;;;;;6213751;23;20033;-90
2022/09/24 09:36:54;;;;;;;3.50;3.00;;;13.60;99.90;;;;;;6235460;23;20035;-83
2022/09/24 09:39:49;;;;;;;4.20;3.80;;;13.70;99.90;;;;;;6250627;23;20024;-87
2022/09/24 09:42:34;;;;;;;4.85;3.40;;;13.60;99.90;;;;;;6188385;23;20025;-86
2022/09/24 09:45:38;;;;;;;4.80;4.18;;;13.60;99.90;;;;;;6206613;23;20025;-88
2022/09/24 09:48:53;;;;;;;4.78;3.78;;;13.50;99.90;;;;;;6199745;22;20449;-88
2022/09/24 09:52:06;;;;;;;3.88;3.58;;;13.60;99.90;;;;;;6224820;23;20008;-89
2022/09/24 09:55:57;;;;;;;;;;;;;;;;;;;;;
2022/09/24 10:09:23;;;;;;;4.57;3.92;;;13.60;99.90;;;;;;6146968;23;20028;-88
2022/09/24 10:12:23;;;;;;;4.43;4.03;;;13.60;99.90;;;;;;6123934;23;20066;-88
2022/09/24 10:15:16;;;;;;;4.43;4.03;;;13.60;99.90;;;;;;6141193;23;20249;-89
2022/09/24 10:18:21;;;;;;;10.63;4.28;;;13.60;99.90;;;;;;6163195;23;20430;-87
2022/09/24 10:24:29;;;;;;;6.28;4.97;;;13.80;99.90;;;;;;6254001;22;20075;-88
2022/09/24 10:26:57;;;;;;;6.22;5.60;;;13.90;99.90;;;;;;6223205;23;20012;-87
2022/09/24 10:32:24;;;;;;;7.78;5.35;;;14.00;99.90;;;;;;6191803;22;20020;-87
2022/09/24 10:39:11;;;;;;;5.47;3.85;;;14.10;99.90;;;;;;6093274;23;20022;-88
2022/09/24 10:41:55;;;;;;;12.68;4.97;;;14.30;99.90;;;;;;6078790;23;20022;-87
2022/09/24 10:44:31;;;;;;;3.58;3.28;;;14.30;99.90;;;;;;6210377;22;20020;-88
2022/09/24 10:47:19;;;;;;;4.75;3.83;;;14.30;99.90;;;;;;6253802;23;20108;-86
2022/09/24 10:50:11;;;;;;;4.32;3.92;;;14.30;99.90;;;;;;6188399;23;20021;-89
2022/09/24 10:52:59;;;;;;;3.88;3.53;;;14.30;99.90;;;;;;6221160;23;20036;-87
2022/09/24 10:56:00;;;;;;;5.10;4.00;;;14.40;99.90;;;;;;6249505;23;20332;-87
2022/09/24 10:58:39;;;;;;;;;;;14.50;99.90;;;;;;6141961;23;20032;-83
2022/09/24 11:01:18;;;;;;;10.23;3.67;;;14.50;99.90;;;;;;6220305;23;19943;-86
2022/09/24 11:04:19;;;;;;;3.88;3.53;;;14.50;99.90;;;;;;6214266;23;20020;-88
2022/09/24 11:07:32;;;;;;;4.47;3.50;;;14.50;99.90;;;;;;6222665;23;20452;-89
2022/09/24 11:10:50;;;;;;;4.00;3.55;;;14.60;99.90;;;;;;6142457;23;20337;-88
2022/09/24 11:13:44;;;;;;;10.50;4.97;;;14.60;99.90;;;;;;6167505;22;20031;-88
2022/09/24 11:52:17;;;;;;;7.95;4.00;;;14.90;99.90;;;;;;6234304;22;20028;-86
2022/09/24 11:55:17;;;;;;;6.13;4.88;;;15.00;99.90;;;;;;6192975;23;20451;-90
2022/09/24 11:58:10;;;;;;;3.90;3.50;;;15.00;99.90;;;;;;6202502;23;20027;-85
2022/09/24 12:01:17;;;;;;;3.55;3.25;;;15.00;99.90;;;;;;6217976;23;20027;-88
2022/09/24 12:04:02;;;;;;;4.75;4.32;;;15.00;99.90;;;;;;6214044;23;20067;-88
2022/09/24 12:06:35;;;;;;;5.63;3.45;;;14.90;99.90;;;;;;6208511;23;20020;-88
2022/09/24 12:09:29;;;;;;;4.38;3.97;;;15.00;99.90;;;;;;6245110;22;20020;-88
2022/09/24 12:12:20;;;;;;;3.90;3.60;;;14.90;99.90;;;;;;6245048;23;20031;-88
2022/09/24 12:15:19;;;;;;;5.28;4.35;;;14.90;99.90;;;;;;6254836;23;20023;-89
2022/09/24 12:18:06;;;;;;;6.93;3.67;;;14.90;99.90;;;;;;6245244;23;20017;-85
2022/09/24 12:20:46;;;;;;;3.90;3.58;;;14.90;99.90;;;;;;6255246;23;20020;-88
2022/09/24 12:23:21;;;;;;;6.15;3.30;;;14.90;99.90;;;;;;6245925;23;20321;-88
2022/09/24 12:25:52;;;;;;;4.30;3.72;;;15.00;99.90;;;;;;6245146;23;20028;-89
2022/09/24 12:34:33;;;;;;;6.18;4.43;;;15.00;99.90;;;;;;6244356;23;20035;-89
2022/09/24 12:37:19;;;;;;;3.92;3.28;;;15.00;99.90;;;;;;6244072;22;20020;-88
2022/09/24 12:39:57;;;;;;;3.45;3.15;;;15.00;99.90;;;;;;6169967;23;20020;-89
2022/09/24 12:42:38;;;;;;;3.30;3.00;;;15.10;99.90;;;;;;6194145;23;20027;-88
2022/09/24 12:45:14;;;;;;;3.42;3.13;;;15.10;99.90;;;;;;6250758;23;20024;-88
2022/09/24 12:47:54;;;;;;;4.07;3.67;;;15.10;99.90;;;;;;6197249;23;20016;-88
2022/09/24 12:50:28;;;;;;;6.00;3.63;;;15.30;99.90;;;;;;6245081;23;20031;-87
2022/09/24 12:52:57;;;;;;;4.35;4.05;;;15.20;99.90;;;;;;6200582;23;20024;-88
2022/09/24 12:55:27;;;;;;;3.97;3.67;;;15.30;99.90;;;;;;6195159;23;20019;-87
2022/09/24 12:57:59;;;;;;;4.43;3.70;;;15.30;99.90;;;;;;6248553;23;20023;-86
2022/09/24 13:05:02;;;;;;;6.40;3.53;;;15.20;99.90;;;;;;6216306;23;20023;-88
2022/09/24 13:07:38;;;;;;;3.85;3.55;;;15.20;99.90;;;;;;6257270;23;20447;-86
2022/09/24 13:10:20;;;;;;;6.22;3.88;;;15.20;99.90;;;;;;6221233;23;20016;-86
2022/09/24 13:12:48;;;;;;;4.05;3.65;;;15.10;99.90;;;;;;6218752;23;20443;-87
2022/09/24 13:15:37;;;;;;;5.38;4.32;;;15.10;99.90;;;;;;6257318;23;20017;-87
2022/09/24 13:18:08;;;;;;;5.68;4.65;;;14.90;99.90;;;;;;6219820;23;20020;-91
2022/09/24 13:20:39;;;;;;;4.97;4.47;;;14.90;99.90;;;;;;6269420;22;20024;-88
2022/09/24 13:23:18;;;;;;;3.80;3.50;;;14.80;99.90;;;;;;6218405;23;20023;-86
2022/09/24 13:26:06;;;;;;;4.82;3.83;;;14.70;99.90;;;;;;6242785;23;20021;-89
2022/09/24 13:28:59;;;;;;;4.10;3.65;;;14.70;99.90;;;;;;6254327;23;20016;-89
2022/09/24 13:31:27;;;;;;;4.45;4.05;;;14.70;99.90;;;;;;6245090;23;20332;-88
2022/09/24 13:34:02;;;;;;;6.43;5.65;;;14.80;99.90;;;;;;6243918;23;20031;-88
2022/09/24 13:37:18;;;;;;;5.75;4.45;;;14.80;99.90;;;;;;6252776;23;20016;-86
2022/09/24 13:39:53;;;;;;;4.55;4.05;;;14.70;99.90;;;;;;6219766;23;20013;-87
2022/09/24 13:42:32;;;;;;;5.72;4.10;;;14.60;99.90;;;;;;6219001;23;20673;-88
2022/09/24 13:45:06;;;;;;;7.40;5.28;;;14.60;99.90;;;;;;6252046;23;20124;-87
2022/09/24 13:47:45;;;;;;;7.03;4.13;;;14.60;99.90;;;;;;6280280;22;20012;-88
2022/09/24 13:50:22;;;;;;;5.38;4.25;;;14.70;99.90;;;;;;6243979;23;20466;-88
2022/09/24 13:52:58;;;;;;;4.45;4.05;;;14.60;99.90;;;;;;6193268;23;20020;-86
2022/09/24 13:55:30;;;;;;;4.47;4.07;;;14.60;99.90;;;;;;6256353;23;20019;-87
2022/09/24 13:57:58;;;;;;;4.63;4.20;;;14.70;99.90;;;;;;6247974;23;20024;-88
2022/09/24 14:00:30;;;;;;;4.32;3.92;;;14.70;99.90;;;;;;6218861;23;20020;-88
2022/09/24 14:03:25;;;;;;;6.15;5.57;;;14.70;99.90;;;;;;6256364;23;20019;-87
2022/09/24 14:05:52;;;;;;;4.35;3.95;;;14.70;99.90;;;;;;5142129;22;10000007;-88
2022/09/24 14:08:28;;;;;;;4.95;4.35;;;14.70;99.90;;;;;;6197694;23;20020;-88
2022/09/24 14:11:13;;;;;;;4.50;3.92;;;14.70;99.90;;;;;;6225630;23;20017;-88
2022/09/24 14:13:44;;;;;;;5.85;5.35;;;14.60;99.90;;;;;;6213135;23;20747;-87
2022/09/24 14:16:22;;;;;;;4.57;4.18;;;14.60;99.90;;;;;;6224538;23;20012;-88
2022/09/24 14:19:04;;;;;;;8.32;4.53;;;14.70;99.90;;;;;;6223252;23;20016;-88
2022/09/24 14:21:41;;;;;;;4.97;4.55;;;14.80;99.90;;;;;;6208612;23;20021;-88
2022/09/24 14:24:17;;;;;;;4.55;3.63;;;14.80;99.90;;;;;;6193952;23;20039;-87
2022/09/24 14:26:56;;;;;;;4.45;4.15;;;14.70;99.90;;;;;;6209420;23;20044;-87
2022/09/24 14:29:45;;;;;;;5.05;4.63;;;14.70;99.90;;;;;;6213294;23;20592;-87
2022/09/24 14:32:35;;;;;;;12.35;3.88;;;14.80;99.90;;;;;;6183361;23;20486;-88
2022/09/24 14:35:16;;;;;;;4.25;3.95;;;14.80;99.90;;;;;;6221832;23;20017;-86
2022/09/24 14:37:56;;;;;;;5.55;5.00;;;14.90;99.90;;;;;;6187068;23;20024;-87
2022/09/24 14:40:26;;;;;;;5.70;4.55;;;14.90;99.90;;;;;;6234456;23;20684;-88
2022/09/24 14:43:02;;;;;;;4.82;4.30;;;14.90;99.90;;;;;;6244759;23;20027;-87
2022/09/24 14:45:39;;;;;;;5.90;4.80;;;14.90;99.90;;;;;;6188599;23;20020;-87
2022/09/24 14:48:23;;;;;;;4.25;3.83;;;15.00;99.90;;;;;;6183338;23;20017;-88
2022/09/24 14:50:51;;;;;;;4.00;3.70;;;14.90;99.90;;;;;;6240595;23;20013;-88
2022/09/24 14:53:21;;;;;;;4.20;3.60;;;14.90;99.90;;;;;;6215684;23;20025;-88
2022/09/24 14:55:48;;;;;;;5.63;5.07;;;14.70;99.90;;;;;;6245275;23;20017;-89
2022/09/24 14:59:22;;;;;;;;;;;;;;;;;;;;;
2022/09/24 15:02:36;;;;;;;4.50;4.10;;;14.70;99.90;;;;;;6150077;23;20021;-90
2022/09/24 15:06:11;;;;;;;6.57;4.20;;;14.70;99.90;;;;;;6129876;23;20036;-90
2022/09/24 15:08:40;;;;;;;5.55;3.95;;;14.70;99.90;;;;;;6179950;23;20036;-88
2022/09/24 15:15:57;;;;;;;;;;;;;;;;;;;;;
2022/09/24 15:19:33;;;;;;;5.47;4.50;;;14.60;99.90;;;;;;6115895;23;20028;-88
2022/09/24 15:22:04;;;;;;;4.50;4.10;;;14.60;99.90;;;;;;6097862;23;20025;-88
2022/09/24 15:25:47;;;;;;;;;;;;;;;;;;;;;
2022/09/24 15:30:07;;;;;;;4.80;4.18;;;14.50;99.90;;;;;;6115539;23;20402;-89
2022/09/24 16:06:37;;;;;;;6.15;5.35;;;14.10;99.90;;;;;;6232110;22;20024;-86
2022/09/24 16:15:03;;;;;;;6.82;5.78;;;14.00;99.90;;;;;;6196903;23;20028;-87
2022/09/24 16:17:37;;;;;;;6.82;6.10;;;14.00;99.90;;;;;;6215041;23;20042;-87
2022/09/24 16:24:41;;;;;;;6.82;6.07;;;14.00;99.90;;;;;;6233065;22;20427;-89
2022/09/24 16:27:37;;;;;;;9.93;5.55;;;14.00;99.90;;;;;;6215356;23;20020;-86
2022/09/24 16:30:48;;;;;;;;;;;;;;;;;;;;;
2022/09/24 16:34:03;;;;;;;9.35;6.43;;;14.00;99.90;;;;;;6229236;22;20035;-88
2022/09/24 16:36:52;;;;;;;6.72;6.18;;;14.00;99.90;;;;;;6179531;23;20027;-87
2022/09/24 16:39:44;;;;;;;8.95;6.88;;;13.90;99.90;;;;;;6231390;23;20016;-87
2022/09/24 16:42:26;;;;;;;7.30;6.60;;;13.90;99.90;;;;;;6197799;23;20027;-87
2022/09/24 16:45:16;;;;;;;6.40;5.80;;;13.90;99.90;;;;;;6167715;23;20040;-87
2022/09/24 16:47:52;;;;;;;7.43;6.40;;;13.90;99.90;;;;;;6180629;23;20043;-87
2022/09/24 16:50:50;;;;;;;6.47;5.88;;;13.90;99.90;;;;;;6171364;23;20028;-87
2022/09/24 16:53:34;;;;;;;7.22;6.50;;;13.80;99.90;;;;;;6220945;23;20043;-87
2022/09/24 16:56:23;;;;;;;7.07;6.47;;;13.80;99.90;;;;;;6199306;22;20031;-87
2022/09/24 16:59:15;;;;;;;9.00;6.85;;;13.70;99.90;;;;;;6189416;23;20431;-88
2022/09/24 17:02:07;;;;;;;9.88;6.93;;;13.80;99.90;;;;;;6211674;23;20696;-87
2022/09/24 17:04:43;;;;;;;7.35;6.43;;;13.50;99.90;;;;;;6222114;22;20475;-87
2022/09/24 17:07:53;;;;;;;7.95;7.15;;;13.60;99.90;;;;;;6190226;23;20017;-87
2022/09/24 17:10:23;;;;;;;8.20;6.72;;;13.60;99.90;;;;;;6214187;23;20024;-87
2022/09/24 17:12:57;;;;;;;6.85;6.25;;;13.50;99.90;;;;;;6232290;22;20336;-87
2022/09/24 17:15:27;;;;;;;8.95;7.53;;;13.60;99.90;;;;;;6189910;23;20012;-87
2022/09/24 17:18:02;;;;;;;11.07;8.80;;;13.50;99.90;;;;;;6172462;22;20075;-87
2022/09/24 17:20:40;;;;;;;10.45;7.53;;;13.40;99.90;;;;;;6193245;22;20034;-87
2022/09/24 17:23:11;;;;;;;8.57;7.63;;;13.40;99.90;;;;;;6206699;23;20023;-87
2022/09/24 17:25:39;;;;;;;8.23;7.38;;;13.40;99.90;;;;;;6179013;23;20035;-88
2022/09/24 17:28:07;;;;;;;7.93;7.13;;;13.30;99.90;;;;;;6225635;23;20020;-86
2022/09/24 17:30:36;;;;;;;7.10;5.85;;;13.20;99.90;;;;;;6189054;23;20038;-87
2022/09/24 17:33:59;;;;;;;8.50;7.65;;;13.20;99.90;;;;;;6223325;23;20027;-88
2022/09/24 17:37:22;;;;;;;8.25;6.10;;;13.20;99.90;;;;;;6196329;23;20027;-87
2022/09/24 17:39:54;;;;;;;8.73;7.82;;;13.10;99.90;;;;;;6189900;23;20020;-87
2022/09/24 17:42:24;;;;;;;10.38;7.63;;;13.10;99.90;;;;;;6213610;23;20020;-88
2022/09/24 17:44:57;;;;;;;7.10;6.40;;;13.10;99.90;;;;;;6190025;23;20031;-87
2022/09/24 17:47:54;;;;;;;8.18;7.15;;;13.10;99.90;;;;;;6214988;23;20362;-88
2022/09/24 17:50:16;;;;;;;7.50;6.75;;;13.10;99.90;;;;;;6185213;22;20032;-86
2022/09/24 17:52:58;;;;;;;8.13;7.43;;;13.20;99.90;;;;;;6214839;23;20024;-88
2022/09/24 17:55:28;;;;;;;7.10;6.40;;;13.10;99.90;;;;;;6155928;23;20084;-88
2022/09/24 17:57:59;;;;;;;10.43;9.43;;;13.10;99.90;;;;;;6185856;23;20024;-88
2022/09/24 18:00:32;;;;;;;8.13;7.43;;;13.20;99.90;;;;;;6201952;23;20436;-88
2022/09/24 18:03:00;;;;;;;9.87;8.60;;;13.10;99.90;;;;;;6213760;23;20577;-87
2022/09/24 18:05:33;;;;;;;15.10;10.02;;;13.20;99.90;;;;;;6213624;22;20035;-87
2022/09/24 18:08:46;;;;;;;26.77;14.57;;;13.10;99.90;;;;;;6164047;23;20035;-87
2022/09/24 18:11:25;;;;;;;18.92;12.00;;;13.10;99.90;;;;;;6238492;23;20039;-87
2022/09/24 18:13:58;;;;;;;9.20;7.63;;;13.00;99.90;;;;;;6214046;23;20035;-87
2022/09/24 18:16:30;;;;;;;10.38;6.38;;;12.90;99.90;;;;;;6190171;23;20470;-87
2022/09/24 18:19:00;;;;;;;9.23;6.68;;;12.80;99.90;;;;;;6212855;23;20035;-88
2022/09/24 18:21:34;;;;;;;7.93;7.15;;;12.80;99.90;;;;;;6212968;23;20020;-87
2022/09/24 18:24:02;;;;;;;7.03;6.35;;;12.80;99.90;;;;;;6214695;23;20027;-87
2022/09/24 18:26:34;;;;;;;8.77;7.32;;;12.80;99.90;;;;;;6178200;22;20027;-87
2022/09/24 18:29:09;;;;;;;8.50;7.13;;;12.80;99.90;;;;;;6235898;22;20020;-88
2022/09/24 18:31:37;;;;;;;8.23;6.05;;;12.80;99.90;;;;;;6214796;23;20027;-88
2022/09/24 18:34:11;;;;;;;7.87;7.17;;;12.80;99.90;;;;;;6212363;23;20459;-89
2022/09/24 18:36:50;;;;;;;11.15;7.20;;;12.80;99.90;;;;;;6212737;22;20032;-89
2022/09/24 18:39:18;;;;;;;9.73;6.80;;;12.80;99.90;;;;;;6224509;23;20016;-89
2022/09/24 18:41:51;;;;;;;12.07;8.02;;;12.80;99.90;;;;;;6212132;23;20028;-87
2022/09/24 18:44:19;;;;;;;7.70;6.07;;;12.70;99.90;;;;;;6239014;22;20020;-87
2022/09/24 18:46:49;;;;;;;9.35;6.97;;;12.70;99.90;;;;;;6190409;23;20039;-87
2022/09/24 18:49:18;;;;;;;8.90;6.53;;;12.70;99.90;;;;;;6238382;22;20020;-86
2022/09/24 18:51:46;;;;;;;8.32;7.53;;;12.70;99.90;;;;;;6236830;23;20027;-86
2022/09/24 18:54:14;;;;;;;7.10;6.40;;;12.80;99.90;;;;;;6247143;22;20459;-85
2022/09/24 18:56:42;;;;;;;8.80;7.90;;;12.70;99.90;;;;;;6250371;23;20023;-84
2022/09/24 18:59:13;;;;;;;9.40;6.78;;;12.60;99.90;;;;;;6243067;22;20023;-85
2022/09/24 19:01:41;;;;;;;;;;;12.70;99.90;;;;;;6272835;22;22100;-84
2022/09/24 19:04:10;;;;;;;10.45;9.30;;;12.60;99.90;;;;;;6251332;23;19920;-84
2022/09/24 19:06:49;;;;;;;9.57;8.32;;;12.70;99.90;;;;;;6240940;22;20339;-84
2022/09/24 19:09:18;;;;;;;9.27;8.23;;;12.70;99.90;;;;;;6249559;23;20020;-84
2022/09/24 19:11:47;;;;;;;10.07;8.10;;;12.70;99.90;;;;;;6237887;23;20456;-84
2022/09/24 19:14:17;;;;;;;8.82;7.93;;;12.60;99.90;;;;;;6245090;23;20738;-84
2022/09/24 19:16:44;;;;;;;9.32;8.27;;;12.60;99.90;;;;;;6213835;23;20027;-84
2022/09/24 19:19:12;;;;;;;11.57;9.65;;;12.60;99.90;;;;;;6188435;23;20028;-85
2022/09/24 19:21:41;;;;;;;14.52;9.70;;;12.60;99.90;;;;;;6248458;22;20023;-84
2022/09/24 19:24:08;;;;;;;11.38;10.30;;;12.60;99.90;;;;;;6250766;23;20012;-84
2022/09/24 19:26:36;;;;;;;11.73;10.52;;;12.60;99.90;;;;;;6244251;22;20020;-86
2022/09/24 19:29:04;;;;;;;10.57;9.57;;;12.60;99.90;;;;;;6250512;23;20023;-86
2022/09/24 19:31:35;;;;;;;11.82;9.32;;;12.60;99.90;;;;;;6239773;22;20020;-86
2022/09/24 19:34:05;;;;;;;12.93;10.30;;;12.50;99.90;;;;;;6245965;23;20024;-86
2022/09/24 19:36:40;;;;;;;11.38;9.65;;;12.50;99.90;;;;;;6249063;23;20023;-86
2022/09/24 19:39:13;;;;;;;13.77;12.32;;;12.50;99.90;;;;;;6236708;23;20020;-85
2022/09/24 19:41:41;;;;;;;12.80;10.18;;;12.40;99.90;;;;;;6246998;22;20056;-86
2022/09/24 19:44:09;;;;;;;11.90;9.60;;;12.40;99.90;;;;;;6252213;23;20008;-86
2022/09/24 19:46:37;;;;;;;11.27;9.95;;;12.50;99.90;;;;;;6248563;23;20028;-86
2022/09/24 19:49:05;;;;;;;11.40;9.93;;;12.50;99.90;;;;;;6218901;23;20031;-85
2022/09/24 19:51:33;;;;;;;10.95;8.65;;;12.40;99.90;;;;;;6268338;22;20020;-85
2022/09/24 19:54:05;;;;;;;10.40;9.50;;;12.50;99.90;;;;;;6225640;23;20020;-85
2022/09/24 19:56:33;;;;;;;13.00;10.50;;;12.50;99.90;;;;;;6253957;23;20016;-86
2022/09/24 19:59:02;;;;;;;11.07;9.30;;;12.50;99.90;;;;;;6246561;23;20027;-86
2022/09/24 20:01:31;;;;;;;10.82;9.73;;;12.50;99.90;;;;;;6254023;22;20016;-86
2022/09/24 20:04:02;;;;;;;11.90;10.57;;;12.50;99.90;;;;;;6255745;23;20008;-86
2022/09/24 20:06:34;;;;;;;11.23;8.95;;;12.50;99.90;;;;;;6246076;22;20072;-85
2022/09/24 20:09:02;;;;;;;14.70;13.27;;;12.60;99.90;;;;;;6255544;23;20020;-86
2022/09/24 20:11:31;;;;;;;11.45;8.98;;;12.50;99.90;;;;;;6244015;23;20313;-86
2022/09/24 20:14:00;;;;;;;10.07;9.10;;;12.50;99.90;;;;;;6249758;23;20023;-86
2022/09/24 20:16:31;;;;;;;17.73;12.80;;;12.30;99.90;;;;;;6268939;22;20012;-85
2022/09/24 20:19:00;;;;;;;11.48;10.38;;;12.20;99.90;;;;;;6268712;22;20024;-85
2022/09/24 20:21:33;;;;;;;11.07;8.52;;;12.20;99.90;;;;;;6251695;22;20021;-81
2022/09/24 20:24:02;;;;;;;49.75;14.95;;;12.30;99.90;;;;;;6268689;22;20026;-83
2022/09/24 20:29:24;;;;;;;10.55;8.68;;;12.30;99.90;;;;;;6223295;22;20020;-81
2022/09/24 20:31:54;;;;;;;13.45;8.48;;;12.30;99.90;;;;;;6257245;23;20012;-81
2022/09/24 20:34:32;;;;;;;18.33;9.60;;;12.30;99.90;;;;;;6250941;23;20020;-81
2022/09/24 20:37:04;;;;;;;12.63;7.72;;;12.30;99.90;;;;;;6256824;23;20012;-81
2022/09/24 20:39:32;;;;;;;14.88;10.75;;;12.30;99.90;;;;;;6247321;22;20032;-81
2022/09/24 20:42:03;;;;;;;14.07;10.70;;;12.40;99.90;;;;;;6244118;23;20012;-81
2022/09/24 20:44:31;;;;;;;12.02;10.93;;;12.30;99.90;;;;;;6255817;23;20008;-81
2022/09/24 20:46:59;;;;;;;11.93;10.52;;;12.30;99.90;;;;;;6249938;22;20028;-81
2022/09/24 20:49:26;;;;;;;11.52;9.57;;;12.30;99.90;;;;;;6256004;22;20695;-81
2022/09/24 20:51:54;;;;;;;12.55;9.50;;;12.30;99.90;;;;;;6255222;23;20016;-81
2022/09/24 20:54:27;;;;;;;16.40;11.18;;;12.40;99.90;;;;;;6250791;23;20452;-81
2022/09/24 20:56:56;;;;;;;14.10;11.57;;;12.40;99.90;;;;;;6256356;23;20059;-85
2022/09/24 20:59:25;;;;;;;16.48;13.30;;;12.40;99.90;;;;;;6246305;23;20031;-85
2022/09/24 21:01:53;;;;;;;21.75;14.00;;;12.40;99.90;;;;;;6252520;23;20012;-86
2022/09/24 21:04:21;;;;;;;12.88;10.82;;;12.40;99.90;;;;;;6245608;23;20023;-85
2022/09/24 21:07:26;;;;;;;11.10;9.52;;;12.30;99.90;;;;;;6245890;22;20039;-85
2022/09/24 21:09:53;;;;;;;10.77;9.70;;;12.40;99.90;;;;;;6244711;22;20024;-85
2022/09/24 21:12:21;;;;;;;17.15;11.63;;;12.40;99.90;;;;;;6256321;23;20016;-85
2022/09/24 21:14:50;;;;;;;13.73;10.88;;;12.40;99.90;;;;;;6248947;23;20029;-86
2022/09/24 21:17:18;;;;;;;16.00;11.43;;;12.40;99.90;;;;;;6195067;23;20439;-85
2022/09/24 21:19:45;;;;;;;16.45;10.40;;;12.50;99.90;;;;;;6219356;23;20024;-86
2022/09/24 21:22:13;;;;;;;12.63;10.25;;;12.40;99.90;;;;;;6250884;23;20344;-85
2022/09/24 21:24:41;;;;;;;17.75;14.02;;;12.50;99.90;;;;;;6195710;23;20099;-86
2022/09/24 21:27:09;;;;;;;11.93;10.68;;;12.40;99.90;;;;;;6218694;22;20020;-85
2022/09/24 21:29:36;;;;;;;14.80;10.10;;;12.30;99.90;;;;;;6255369;22;20027;-85
2022/09/24 21:32:03;;;;;;;18.35;11.20;;;12.30;99.90;;;;;;6255146;23;20020;-85
2022/09/24 21:34:31;;;;;;;21.17;12.02;;;12.30;99.90;;;;;;6244639;22;20028;-85
2022/09/24 21:36:58;;;;;;;12.45;9.73;;;12.30;99.90;;;;;;6244996;23;20439;-85
2022/09/24 21:39:26;;;;;;;11.73;10.55;;;12.30;99.90;;;;;;6247627;22;20043;-85
2022/09/24 21:41:58;;;;;;;12.57;10.75;;;12.30;99.90;;;;;;6218443;23;20024;-85
2022/09/24 21:44:29;;;;;;;;;;;12.30;99.90;;;;;;6230942;23;20515;-85
2022/09/24 21:46:56;;;;;;;16.02;10.85;;;12.30;99.90;;;;;;6222974;23;19920;-85
2022/09/24 21:49:23;;;;;;;33.65;12.73;;;12.30;99.90;;;;;;6256175;22;20019;-85
2022/09/24 21:51:54;;;;;;;17.00;13.43;;;12.30;99.90;;;;;;6219326;23;20020;-85
2022/09/24 21:54:22;;;;;;;11.05;9.50;;;12.30;99.90;;;;;;6219424;23;20027;-85
2022/09/24 21:56:49;;;;;;;28.08;16.70;;;12.20;99.90;;;;;;6254672;23;20439;-85
2022/09/24 22:02:03;;;;;;;16.50;13.95;;;12.20;99.90;;;;;;6244213;23;20020;-85
2022/09/24 22:04:32;;;;;;;19.42;13.68;;;12.20;99.90;;;;;;6219700;23;20024;-85
2022/09/24 22:07:34;;;;;;;17.08;13.82;;;12.20;99.90;;;;;;6249020;22;20028;-85
2022/09/24 22:10:01;;;;;;;17.73;14.15;;;12.30;99.90;;;;;;6219087;23;20016;-85
2022/09/24 22:12:29;;;;;;;15.88;14.25;;;12.20;99.90;;;;;;6218679;23;20016;-85
2022/09/24 22:14:56;;;;;;;17.88;12.27;;;12.20;99.90;;;;;;6245473;22;20027;-85
2022/09/24 22:17:24;;;;;;;16.50;12.75;;;12.20;99.90;;;;;;6255737;22;20722;-85